Time;durP1;ratioP1;P1;durP2;ratioP2;P2;SDS_P1;SDS_P2;PMS_P1;PMS_P2;Temp;Humidity;BMP_temperature;BMP_pressure;BME280_temperature;BME280_humidity;BME280_pressure;Samples;Min_cycle;Max_cycle;Signal;HPM_P1;HPM_P2
2023/07/05 00:02:20;;;;;;;5.80;4.43;;;24.90;45.20;;;;;;4992658;28;20300;-53
2023/07/05 00:04:45;;;;;;;6.87;4.80;;;24.90;45.20;;;;;;4980091;28;20201;-54
2023/07/05 00:07:11;;;;;;;7.10;4.53;;;24.80;45.20;;;;;;4977103;28;20270;-57
2023/07/05 00:09:37;;;;;;;5.70;4.70;;;24.80;45.40;;;;;;4986060;28;20199;-53
2023/07/05 00:12:03;;;;;;;5.10;4.60;;;24.90;45.20;;;;;;4992822;28;20194;-50
2023/07/05 00:14:29;;;;;;;4.70;4.20;;;24.70;45.40;;;;;;4984759;28;20256;-55
2023/07/05 00:16:55;;;;;;;5.43;4.20;;;24.40;46.00;;;;;;4976918;28;20226;-51
2023/07/05 00:19:20;;;;;;;4.83;3.90;;;24.20;46.40;;;;;;4987981;28;20520;-50
2023/07/05 00:21:46;;;;;;;5.47;4.60;;;23.80;47.10;;;;;;4984715;28;20446;-51
2023/07/05 00:24:11;;;;;;;4.53;4.10;;;23.50;48.00;;;;;;4980472;28;20421;-54
2023/07/05 00:26:37;;;;;;;5.60;3.83;;;23.60;47.90;;;;;;4988913;28;20191;-53
2023/07/05 00:29:03;;;;;;;8.63;4.57;;;24.00;47.50;;;;;;4997907;28;20206;-51
2023/07/05 00:31:28;;;;;;;5.63;4.57;;;24.20;46.90;;;;;;4980095;28;20187;-52
2023/07/05 00:33:54;;;;;;;5.60;4.40;;;24.50;46.40;;;;;;4986068;28;20197;-49
2023/07/05 00:36:19;;;;;;;4.20;3.80;;;24.70;45.90;;;;;;4993702;28;20277;-52
2023/07/05 00:38:45;;;;;;;6.83;3.77;;;24.80;45.50;;;;;;4992823;28;20234;-53
2023/07/05 00:41:11;;;;;;;6.17;5.00;;;24.80;45.40;;;;;;4992450;28;20234;-52
2023/07/05 00:43:36;;;;;;;7.63;4.47;;;24.70;45.70;;;;;;4991445;28;20245;-51
2023/07/05 00:46:21;;;;;;;4.50;4.10;;;24.60;45.50;;;;;;4991389;28;20661;-52
2023/07/05 00:48:57;;;;;;;6.33;4.60;;;24.20;46.40;;;;;;4975463;28;20258;-53
2023/07/05 00:51:26;;;;;;;5.40;3.93;;;23.70;47.40;;;;;;4980714;28;20449;-51
2023/07/05 00:53:54;;;;;;;4.67;4.27;;;23.60;47.90;;;;;;4989407;28;20892;-53
2023/07/05 00:56:26;;;;;;;5.87;3.73;;;23.40;48.20;;;;;;4991817;28;20494;-52
2023/07/05 00:58:53;;;;;;;5.40;4.37;;;23.50;48.00;;;;;;4990638;28;20485;-53
2023/07/05 01:01:19;;;;;;;4.93;4.43;;;23.40;48.20;;;;;;4990966;28;20445;-52
2023/07/05 01:03:50;;;;;;;5.63;4.13;;;23.20;48.30;;;;;;4984023;28;20778;-51
2023/07/05 01:06:17;;;;;;;4.97;4.50;;;23.30;48.60;;;;;;4990304;28;20949;-50
2023/07/05 01:08:42;;;;;;;5.83;3.93;;;23.40;48.40;;;;;;4983414;28;20446;-54
2023/07/05 01:11:40;;;;;;;4.33;3.93;;;23.40;48.20;;;;;;4978705;28;21299;-53
2023/07/05 01:14:32;;;;;;;5.97;4.30;;;23.60;48.10;;;;;;4980282;28;20206;-50
2023/07/05 01:17:30;;;;;;;3.87;3.57;;;23.50;48.30;;;;;;4973165;28;20534;-51
2023/07/05 01:20:14;;;;;;;3.93;3.63;;;23.70;47.90;;;;;;4983852;28;20536;-52
2023/07/05 01:22:43;;;;;;;3.97;3.57;;;23.50;48.40;;;;;;4982922;28;20495;-49
2023/07/05 01:25:30;;;;;;;4.87;4.33;;;23.50;48.70;;;;;;4985661;28;20450;-49
2023/07/05 01:28:16;;;;;;;3.57;3.27;;;23.60;48.20;;;;;;4981944;28;22259;-53
2023/07/05 01:30:53;;;;;;;3.63;3.30;;;23.60;49.00;;;;;;4989431;28;20468;-51
2023/07/05 01:33:37;;;;;;;3.70;2.83;;;23.80;48.20;;;;;;4988956;28;20445;-53
2023/07/05 01:36:04;;;;;;;3.87;3.10;;;23.90;48.10;;;;;;4987476;28;20445;-48
2023/07/05 01:38:29;;;;;;;4.10;3.40;;;24.10;48.00;;;;;;4988482;28;21325;-51
2023/07/05 01:41:07;;;;;;;6.30;3.70;;;24.30;48.30;;;;;;4990719;28;20520;-54
2023/07/05 01:43:38;;;;;;;3.87;3.20;;;24.50;48.10;;;;;;4983664;28;20194;-50
2023/07/05 01:46:15;;;;;;;3.10;2.80;;;24.70;47.70;;;;;;4983695;28;20453;-49
2023/07/05 01:49:02;;;;;;;5.20;3.50;;;24.90;47.90;;;;;;4979338;28;20539;-51
2023/07/05 01:51:46;;;;;;;3.33;3.03;;;25.00;47.80;;;;;;4978445;28;20441;-55
2023/07/05 01:54:18;;;;;;;3.63;3.30;;;25.10;47.50;;;;;;4981975;28;20547;-50
2023/07/05 01:57:08;;;;;;;3.30;3.00;;;25.20;47.30;;;;;;4983454;28;20485;-49
2023/07/05 01:59:46;;;;;;;4.73;2.80;;;25.20;47.10;;;;;;4989025;28;20848;-49
2023/07/05 02:02:14;;;;;;;4.50;3.13;;;25.20;47.10;;;;;;4983200;28;20442;-49
2023/07/05 02:04:41;;;;;;;4.00;3.40;;;25.20;47.00;;;;;;4983057;28;20449;-49
2023/07/05 02:07:07;;;;;;;3.80;3.00;;;25.10;46.80;;;;;;4974769;28;20453;-52
2023/07/05 02:09:37;;;;;;;4.00;3.10;;;25.20;46.70;;;;;;4990102;28;20909;-53
2023/07/05 02:12:04;;;;;;;4.57;3.70;;;25.10;46.70;;;;;;4989742;28;20202;-50
2023/07/05 02:14:30;;;;;;;5.43;4.03;;;25.10;46.70;;;;;;4979252;28;20457;-51
2023/07/05 02:16:55;;;;;;;4.10;3.10;;;25.10;46.90;;;;;;4989914;28;20477;-51
2023/07/05 02:19:21;;;;;;;3.77;3.10;;;25.20;46.60;;;;;;4993016;28;20654;-51
2023/07/05 02:21:47;;;;;;;3.90;3.37;;;25.40;46.30;;;;;;5011169;28;20248;-49
2023/07/05 02:24:12;;;;;;;4.60;3.50;;;25.50;46.10;;;;;;5005339;28;20206;-51
2023/07/05 02:26:38;;;;;;;5.93;3.30;;;25.40;46.30;;;;;;4995760;28;20199;-53
2023/07/05 02:29:03;;;;;;;3.40;3.10;;;25.40;46.30;;;;;;4989295;28;20210;-52
2023/07/05 02:31:29;;;;;;;4.70;3.13;;;25.40;46.30;;;;;;4989502;28;20194;-50
2023/07/05 02:33:56;;;;;;;6.13;3.10;;;25.30;47.00;;;;;;4988367;28;20191;-51
2023/07/05 02:36:21;;;;;;;7.40;3.40;;;25.20;47.10;;;;;;4986206;28;20504;-53
2023/07/05 02:38:47;;;;;;;2.97;2.70;;;25.10;47.50;;;;;;4978527;28;20480;-52
2023/07/05 02:41:12;;;;;;;4.77;3.40;;;25.10;47.60;;;;;;4979294;28;20195;-49
2023/07/05 02:43:38;;;;;;;4.63;2.83;;;25.10;47.80;;;;;;4990327;28;20205;-50
2023/07/05 02:46:05;;;;;;;3.00;2.60;;;25.10;48.10;;;;;;4991735;28;20619;-51
2023/07/05 02:48:32;;;;;;;4.10;2.90;;;25.20;48.30;;;;;;4993473;28;20203;-54
2023/07/05 02:50:57;;;;;;;3.17;2.60;;;25.20;48.10;;;;;;4992428;28;20949;-50
2023/07/05 02:53:23;;;;;;;3.40;2.50;;;25.20;48.00;;;;;;4986141;28;20449;-51
2023/07/05 02:55:50;;;;;;;3.83;3.53;;;25.40;47.90;;;;;;4992687;28;20203;-50
2023/07/05 02:58:15;;;;;;;3.07;2.87;;;25.50;47.50;;;;;;4991214;28;20717;-50
2023/07/05 03:00:43;;;;;;;5.60;3.00;;;25.60;47.70;;;;;;4984929;28;20441;-53
2023/07/05 03:03:08;;;;;;;2.90;2.53;;;25.60;48.20;;;;;;4989780;28;20206;-49
2023/07/05 03:05:34;;;;;;;4.20;3.33;;;25.70;48.70;;;;;;4992082;28;20442;-51
2023/07/05 03:07:59;;;;;;;2.60;2.40;;;25.70;48.20;;;;;;4996988;28;20204;-53
2023/07/05 03:10:25;;;;;;;4.67;2.27;;;25.80;49.10;;;;;;4993743;28;20195;-50
2023/07/05 03:12:51;;;;;;;2.47;2.00;;;25.70;50.00;;;;;;4994832;28;20206;-51
2023/07/05 03:15:16;;;;;;;2.40;2.07;;;25.70;49.80;;;;;;4992748;28;20571;-51
2023/07/05 03:17:43;;;;;;;2.83;2.63;;;25.70;49.70;;;;;;4997353;28;20288;-49
2023/07/05 03:20:09;;;;;;;3.77;2.57;;;25.70;50.00;;;;;;4990982;28;20240;-51
2023/07/05 03:22:35;;;;;;;3.07;2.13;;;25.80;49.60;;;;;;4992768;28;20460;-54
2023/07/05 03:25:00;;;;;;;6.20;2.83;;;25.80;49.40;;;;;;4990611;28;20803;-52
2023/07/05 03:27:28;;;;;;;2.80;2.50;;;25.90;48.80;;;;;;4992612;28;20191;-54
2023/07/05 03:29:55;;;;;;;3.23;2.43;;;25.90;49.00;;;;;;4991088;28;20197;-51
2023/07/05 03:32:21;;;;;;;2.80;2.60;;;25.80;50.00;;;;;;4989646;28;20442;-55
2023/07/05 03:34:47;;;;;;;2.80;2.60;;;25.80;49.70;;;;;;4990800;28;20516;-55
2023/07/05 03:37:12;;;;;;;3.37;3.07;;;25.80;49.70;;;;;;4991265;28;20528;-50
2023/07/05 03:39:38;;;;;;;3.00;2.70;;;25.70;49.80;;;;;;4990495;28;20230;-55
2023/07/05 03:42:04;;;;;;;2.97;2.53;;;25.60;49.60;;;;;;4993755;28;20190;-52
2023/07/05 03:44:29;;;;;;;4.23;2.93;;;25.60;49.60;;;;;;4991803;28;20253;-49
2023/07/05 03:46:55;;;;;;;2.50;2.30;;;25.50;49.80;;;;;;4993972;28;20195;-50
2023/07/05 03:49:20;;;;;;;3.20;2.90;;;25.40;49.40;;;;;;4993636;28;20257;-50
2023/07/05 03:51:46;;;;;;;2.43;2.23;;;25.30;49.60;;;;;;4989882;28;20302;-52
2023/07/05 03:54:12;;;;;;;2.30;2.10;;;25.20;49.90;;;;;;4990840;28;20826;-51
2023/07/05 03:56:37;;;;;;;5.10;2.10;;;25.30;49.80;;;;;;4992017;28;20194;-50
2023/07/05 03:59:03;;;;;;;5.43;2.20;;;24.90;50.80;;;;;;4989820;28;20230;-49
2023/07/05 04:01:30;;;;;;;2.50;1.87;;;24.80;51.50;;;;;;4991523;28;20202;-50
2023/07/05 04:03:58;;;;;;;2.33;2.13;;;24.70;51.70;;;;;;4990208;28;20190;-53
2023/07/05 04:06:26;;;;;;;2.23;2.03;;;24.70;52.10;;;;;;4992930;28;20937;-49
2023/07/05 04:08:52;;;;;;;4.07;2.10;;;24.50;52.50;;;;;;4980463;28;20481;-50
2023/07/05 04:11:18;;;;;;;3.47;1.97;;;24.40;52.80;;;;;;4984307;28;20524;-51
2023/07/05 04:13:44;;;;;;;2.40;2.10;;;24.40;53.10;;;;;;4990199;28;20212;-52
2023/07/05 04:16:16;;;;;;;3.47;1.77;;;24.50;53.10;;;;;;4989891;28;20545;-49
2023/07/05 04:18:43;;;;;;;3.17;2.13;;;24.50;53.50;;;;;;4993693;28;20970;-51
2023/07/05 04:21:10;;;;;;;2.20;2.00;;;24.50;53.10;;;;;;4989370;28;21408;-54
2023/07/05 04:23:35;;;;;;;2.60;2.10;;;24.50;53.30;;;;;;4988760;28;20445;-54
2023/07/05 04:26:06;;;;;;;2.50;2.30;;;24.40;53.50;;;;;;4984481;28;20445;-52
2023/07/05 04:28:33;;;;;;;2.17;2.07;;;24.40;53.70;;;;;;4988963;28;20217;-49
2023/07/05 04:30:59;;;;;;;2.57;2.27;;;24.30;53.80;;;;;;4979066;28;20956;-47
2023/07/05 04:33:25;;;;;;;2.87;2.53;;;24.20;54.40;;;;;;4988000;28;20441;-46
2023/07/05 04:35:54;;;;;;;2.80;1.63;;;24.20;54.50;;;;;;4982078;28;20446;-47
2023/07/05 04:38:20;;;;;;;3.50;1.77;;;24.10;54.70;;;;;;4981196;28;20473;-51
2023/07/05 04:40:45;;;;;;;3.77;1.73;;;24.00;55.20;;;;;;4981449;28;21236;-50
2023/07/05 04:43:11;;;;;;;2.40;2.07;;;24.00;55.80;;;;;;4986723;28;20191;-46
2023/07/05 04:45:36;;;;;;;2.90;2.10;;;24.00;55.40;;;;;;4980054;28;20261;-47
2023/07/05 04:48:02;;;;;;;2.90;2.60;;;24.10;55.40;;;;;;4980471;28;20195;-49
2023/07/05 04:50:28;;;;;;;1.83;1.63;;;24.00;55.60;;;;;;4984926;28;20194;-46
2023/07/05 04:52:55;;;;;;;3.83;1.90;;;24.00;56.00;;;;;;4988521;28;20677;-50
2023/07/05 04:55:20;;;;;;;1.90;1.70;;;24.10;55.60;;;;;;4994694;28;20245;-50
2023/07/05 04:57:46;;;;;;;2.03;1.83;;;24.00;56.00;;;;;;4989560;28;20930;-48
2023/07/05 05:00:12;;;;;;;2.50;1.93;;;23.90;56.20;;;;;;4990046;28;20242;-47
2023/07/05 05:02:38;;;;;;;1.90;1.80;;;23.90;56.40;;;;;;4984234;28;20225;-47
2023/07/05 05:05:05;;;;;;;2.47;2.13;;;23.90;56.50;;;;;;4981877;28;20925;-48
2023/07/05 05:07:31;;;;;;;3.07;1.90;;;23.90;56.60;;;;;;4988110;28;20204;-48
2023/07/05 05:09:58;;;;;;;2.90;2.40;;;23.70;56.90;;;;;;4983229;28;20457;-47
2023/07/05 05:12:24;;;;;;;2.80;2.10;;;23.80;56.90;;;;;;4978343;28;20253;-48
2023/07/05 05:14:49;;;;;;;3.00;1.93;;;23.80;57.10;;;;;;4977126;28;20458;-45
2023/07/05 05:17:15;;;;;;;2.10;1.90;;;23.60;57.40;;;;;;4983081;28;20234;-51
2023/07/05 05:19:41;;;;;;;2.70;2.00;;;23.60;57.70;;;;;;4979197;28;20401;-51
2023/07/05 05:22:08;;;;;;;3.93;2.10;;;23.70;57.50;;;;;;4981639;28;20227;-46
2023/07/05 05:24:33;;;;;;;2.20;2.00;;;23.70;57.20;;;;;;4977383;28;20569;-46
2023/07/05 05:26:59;;;;;;;2.13;1.87;;;23.70;57.00;;;;;;4980080;28;20557;-47
2023/07/05 05:29:25;;;;;;;4.67;2.03;;;23.60;57.40;;;;;;4980022;28;20195;-46
2023/07/05 05:31:50;;;;;;;3.53;2.10;;;23.80;57.00;;;;;;4990080;28;21021;-48
2023/07/05 05:34:16;;;;;;;3.57;2.20;;;24.00;56.40;;;;;;4977612;28;20704;-46
2023/07/05 05:36:41;;;;;;;3.20;2.27;;;24.20;56.30;;;;;;4987489;28;20200;-50
2023/07/05 05:39:08;;;;;;;3.87;2.37;;;24.10;56.00;;;;;;4979961;28;20226;-52
2023/07/05 05:41:33;;;;;;;5.23;1.87;;;24.10;56.00;;;;;;4981044;28;20199;-49
2023/07/05 05:43:59;;;;;;;3.23;1.60;;;24.40;55.80;;;;;;4988584;28;20481;-46
2023/07/05 05:46:25;;;;;;;4.27;1.73;;;24.50;55.70;;;;;;4990622;28;20195;-46
2023/07/05 05:48:50;;;;;;;2.27;1.87;;;24.20;55.80;;;;;;4990312;28;20721;-46
2023/07/05 05:51:16;;;;;;;2.97;2.13;;;24.10;56.30;;;;;;4988409;28;20190;-47
2023/07/05 05:53:41;;;;;;;2.83;1.97;;;24.10;56.20;;;;;;4990812;28;20737;-48
2023/07/05 05:56:07;;;;;;;4.20;1.93;;;24.20;56.40;;;;;;4991177;28;20638;-46
2023/07/05 05:58:33;;;;;;;2.00;1.70;;;24.10;56.50;;;;;;4990787;28;20642;-47
2023/07/05 06:01:03;;;;;;;3.70;2.40;;;24.10;56.60;;;;;;4988769;28;20278;-48
2023/07/05 06:03:29;;;;;;;1.80;1.70;;;24.20;56.60;;;;;;4989743;28;20202;-51
2023/07/05 06:05:55;;;;;;;2.50;2.00;;;24.20;56.40;;;;;;4991519;28;20521;-51
2023/07/05 06:08:21;;;;;;;2.50;2.30;;;24.30;56.30;;;;;;4989994;28;20229;-48
2023/07/05 06:10:53;;;;;;;2.40;1.90;;;24.40;56.20;;;;;;4990763;28;20541;-52
2023/07/05 06:13:19;;;;;;;4.53;2.10;;;24.40;56.10;;;;;;4990545;28;20194;-52
2023/07/05 06:15:44;;;;;;;2.30;2.10;;;24.40;56.20;;;;;;4990584;28;20557;-52
2023/07/05 06:18:10;;;;;;;5.23;2.20;;;24.40;56.20;;;;;;4993287;28;20194;-47
2023/07/05 06:20:35;;;;;;;2.27;2.07;;;24.50;56.00;;;;;;4989261;28;20684;-49
2023/07/05 06:23:03;;;;;;;4.40;1.83;;;24.70;55.90;;;;;;4991513;28;20658;-47
2023/07/05 06:25:29;;;;;;;4.03;1.97;;;24.70;55.70;;;;;;4983287;28;20187;-49
2023/07/05 06:27:55;;;;;;;2.10;1.63;;;24.80;55.70;;;;;;4987415;28;20898;-53
2023/07/05 06:30:20;;;;;;;3.03;2.10;;;24.90;56.00;;;;;;4988468;28;20474;-50
2023/07/05 06:32:46;;;;;;;4.17;2.20;;;24.80;55.50;;;;;;4988046;28;20195;-47
2023/07/05 06:35:12;;;;;;;3.27;1.93;;;24.80;55.40;;;;;;4989617;28;20200;-47
2023/07/05 06:37:37;;;;;;;3.60;2.50;;;24.90;55.30;;;;;;5001995;28;20193;-47
2023/07/05 06:40:03;;;;;;;6.70;2.73;;;25.10;54.90;;;;;;4990762;28;20230;-47
2023/07/05 06:42:29;;;;;;;2.70;1.93;;;25.20;54.90;;;;;;4989751;28;20273;-46
2023/07/05 06:44:54;;;;;;;4.40;2.83;;;25.10;55.00;;;;;;4989504;28;20442;-51
2023/07/05 06:47:20;;;;;;;5.70;2.53;;;24.90;54.20;;;;;;4988806;28;20203;-49
2023/07/05 06:49:45;;;;;;;1.83;1.73;;;24.50;55.10;;;;;;4989662;28;20282;-48
2023/07/05 06:52:11;;;;;;;5.10;1.90;;;24.30;57.90;;;;;;4990233;28;20194;-47
2023/07/05 06:54:37;;;;;;;4.70;2.03;;;24.20;58.60;;;;;;4988970;28;20689;-49
2023/07/05 06:57:02;;;;;;;4.03;2.17;;;24.30;59.70;;;;;;4986150;28;20591;-47
2023/07/05 06:59:28;;;;;;;6.50;2.43;;;24.20;59.90;;;;;;4985297;28;20222;-50
2023/07/05 07:01:53;;;;;;;2.93;1.70;;;23.90;61.20;;;;;;4987478;28;20193;-53
2023/07/05 07:04:19;;;;;;;1.77;1.60;;;24.00;62.50;;;;;;4978282;28;20191;-56
2023/07/05 07:06:45;;;;;;;3.80;1.60;;;24.00;62.50;;;;;;4978948;28;20206;-54
2023/07/05 07:09:12;;;;;;;2.80;2.10;;;23.60;63.60;;;;;;4982298;28;20226;-51
2023/07/05 07:11:38;;;;;;;3.23;2.00;;;23.00;66.00;;;;;;4988617;28;20195;-54
2023/07/05 07:14:04;;;;;;;4.73;2.00;;;23.00;67.30;;;;;;4987618;28;20510;-53
2023/07/05 07:16:30;;;;;;;5.33;2.10;;;23.00;68.40;;;;;;4987277;28;20489;-54
2023/07/05 07:18:56;;;;;;;4.70;2.00;;;23.00;69.10;;;;;;4992964;28;20492;-50
2023/07/05 07:21:23;;;;;;;3.50;2.13;;;23.10;68.70;;;;;;4986823;28;20861;-54
2023/07/05 07:23:49;;;;;;;3.33;2.30;;;23.10;69.00;;;;;;4986589;28;20944;-54
2023/07/05 07:26:22;;;;;;;4.20;2.60;;;23.10;69.30;;;;;;4992819;28;20510;-48
2023/07/05 07:28:56;;;;;;;2.20;1.77;;;23.00;69.50;;;;;;4992176;28;20446;-53
2023/07/05 07:31:25;;;;;;;6.43;2.60;;;23.20;69.20;;;;;;4990685;28;20444;-54
2023/07/05 07:33:51;;;;;;;2.30;1.73;;;23.30;69.40;;;;;;4992649;28;20434;-54
2023/07/05 07:36:20;;;;;;;3.27;2.00;;;23.30;69.50;;;;;;4993326;28;20929;-55
2023/07/05 07:38:47;;;;;;;2.40;1.93;;;23.20;69.50;;;;;;4997565;28;20936;-54
2023/07/05 07:41:17;;;;;;;4.70;1.80;;;23.30;70.10;;;;;;4991040;28;21139;-55
2023/07/05 07:43:44;;;;;;;1.80;1.70;;;23.10;70.10;;;;;;4986471;28;20458;-53
2023/07/05 07:46:16;;;;;;;3.90;1.83;;;23.20;70.20;;;;;;4993525;28;20449;-55
2023/07/05 07:48:45;;;;;;;2.60;1.70;;;23.30;69.20;;;;;;4992638;28;20465;-55
2023/07/05 07:51:11;;;;;;;2.37;1.70;;;23.30;69.30;;;;;;4987713;28;21145;-56
2023/07/05 07:53:37;;;;;;;2.47;1.50;;;23.10;66.90;;;;;;4992417;28;20529;-56
2023/07/05 07:56:18;;;;;;;3.30;1.73;;;23.20;69.50;;;;;;4989947;28;20533;-54
2023/07/05 07:58:48;;;;;;;1.70;1.60;;;23.40;71.50;;;;;;4990305;28;20577;-54
2023/07/05 08:01:15;;;;;;;2.30;1.60;;;23.60;71.60;;;;;;4995372;28;20434;-55
2023/07/05 08:03:41;;;;;;;1.90;1.70;;;23.70;69.20;;;;;;5003649;28;20438;-55
2023/07/05 08:06:08;;;;;;;1.87;1.77;;;23.60;68.00;;;;;;4988022;28;20434;-51
2023/07/05 08:08:36;;;;;;;2.83;1.77;;;23.60;67.90;;;;;;4989570;28;20454;-52
2023/07/05 08:11:03;;;;;;;2.20;2.00;;;23.80;66.40;;;;;;4993528;28;20976;-52
2023/07/05 08:13:32;;;;;;;1.77;1.57;;;23.80;66.00;;;;;;4992707;28;20469;-50
2023/07/05 08:15:58;;;;;;;2.37;1.60;;;23.90;65.80;;;;;;4994913;28;20474;-55
2023/07/05 08:18:25;;;;;;;3.40;2.20;;;24.00;63.90;;;;;;4993611;28;20485;-53
2023/07/05 08:20:52;;;;;;;6.20;2.00;;;23.70;64.50;;;;;;5006731;28;20444;-55
2023/07/05 08:23:18;;;;;;;2.33;2.10;;;23.60;63.90;;;;;;4990844;28;20462;-52
2023/07/05 08:25:45;;;;;;;2.03;1.83;;;23.30;63.70;;;;;;4987926;28;20551;-52
2023/07/05 08:28:13;;;;;;;3.03;2.60;;;23.10;63.50;;;;;;4984916;28;20274;-52
2023/07/05 08:30:42;;;;;;;2.70;2.50;;;22.90;65.00;;;;;;4995069;28;20444;-52
2023/07/05 08:33:08;;;;;;;2.67;2.47;;;22.70;65.80;;;;;;5000137;28;20418;-56
2023/07/05 08:35:34;;;;;;;7.00;2.80;;;22.80;65.40;;;;;;4989873;28;20544;-50
2023/07/05 08:38:01;;;;;;;2.57;2.30;;;22.90;65.30;;;;;;4990793;28;20216;-54
2023/07/05 08:40:36;;;;;;;3.13;2.80;;;23.00;64.70;;;;;;4985039;28;20454;-52
2023/07/05 08:43:12;;;;;;;2.40;2.20;;;23.00;65.60;;;;;;4985022;28;20806;-54
2023/07/05 08:45:43;;;;;;;3.80;2.73;;;23.00;64.00;;;;;;4985037;28;20441;-53
2023/07/05 08:48:12;;;;;;;2.93;2.70;;;23.10;63.80;;;;;;4984637;28;20593;-48
2023/07/05 08:50:43;;;;;;;3.50;2.93;;;23.00;62.40;;;;;;4984079;28;20445;-51
2023/07/05 08:53:23;;;;;;;2.60;2.40;;;22.90;63.40;;;;;;4983980;28;20457;-50
2023/07/05 08:56:15;;;;;;;3.23;2.80;;;22.70;62.90;;;;;;4989783;28;20939;-51
2023/07/05 08:58:46;;;;;;;3.30;3.00;;;22.70;62.70;;;;;;4979656;28;20896;-51
2023/07/05 09:01:42;;;;;;;3.37;3.10;;;22.80;62.90;;;;;;4987109;28;20442;-52
2023/07/05 09:04:29;;;;;;;3.67;3.23;;;22.90;62.60;;;;;;4987609;28;21332;-50
2023/07/05 09:07:07;;;;;;;3.20;2.97;;;23.00;61.70;;;;;;4985614;28;20454;-49
2023/07/05 09:10:05;;;;;;;3.30;2.97;;;23.10;61.60;;;;;;4984291;28;20453;-53
2023/07/05 09:12:53;;;;;;;3.13;2.83;;;23.10;61.40;;;;;;4982018;28;20539;-52
2023/07/05 09:15:21;;;;;;;3.80;3.40;;;23.20;61.40;;;;;;4984834;28;20450;-52
2023/07/05 09:17:59;;;;;;;4.60;4.13;;;23.30;61.20;;;;;;4994721;28;20948;-47
2023/07/05 09:20:39;;;;;;;3.37;3.17;;;23.40;60.10;;;;;;4989679;28;20470;-49
2023/07/05 09:23:15;;;;;;;3.87;3.40;;;23.50;60.80;;;;;;4980092;28;20449;-49
2023/07/05 09:25:44;;;;;;;3.70;3.40;;;23.50;60.10;;;;;;4987439;28;20500;-49
2023/07/05 09:28:24;;;;;;;3.90;3.60;;;23.80;61.00;;;;;;4987986;28;20457;-50
2023/07/05 09:30:52;;;;;;;3.77;3.37;;;24.10;59.90;;;;;;4987623;28;20900;-50
2023/07/05 09:33:32;;;;;;;3.70;3.20;;;24.30;58.10;;;;;;4984578;28;20504;-51
2023/07/05 09:36:03;;;;;;;3.50;3.03;;;24.60;57.40;;;;;;4979331;28;21489;-48
2023/07/05 09:38:34;;;;;;;2.83;2.63;;;24.60;56.90;;;;;;4984440;28;20852;-48
2023/07/05 09:41:04;;;;;;;4.27;3.40;;;24.30;55.00;;;;;;4985021;28;20485;-50
2023/07/05 09:43:36;;;;;;;3.63;2.90;;;24.10;56.20;;;;;;4985305;28;20531;-50
2023/07/05 09:46:17;;;;;;;2.90;2.70;;;24.20;56.50;;;;;;4983521;28;21020;-52
2023/07/05 09:48:46;;;;;;;3.80;3.07;;;24.30;56.60;;;;;;4987347;28;20545;-50
2023/07/05 09:51:13;;;;;;;3.93;3.53;;;24.40;55.80;;;;;;4986901;28;20461;-53
2023/07/05 09:53:45;;;;;;;4.93;3.30;;;24.60;54.70;;;;;;4987537;28;20477;-52
2023/07/05 09:56:16;;;;;;;3.00;2.70;;;25.00;54.90;;;;;;4982808;28;20461;-53
2023/07/05 09:58:44;;;;;;;5.10;3.50;;;25.20;53.60;;;;;;4987564;28;20595;-49
2023/07/05 10:01:21;;;;;;;3.27;3.00;;;25.20;52.10;;;;;;4987024;28;20929;-49
2023/07/05 10:03:56;;;;;;;4.20;3.30;;;25.40;52.30;;;;;;4986902;28;20468;-50
2023/07/05 10:06:28;;;;;;;3.50;3.20;;;25.70;51.20;;;;;;4986455;28;20449;-52
2023/07/05 10:08:56;;;;;;;3.97;3.57;;;25.90;50.60;;;;;;4985141;28;20937;-54
2023/07/05 10:11:27;;;;;;;4.67;3.97;;;25.90;49.70;;;;;;4988972;28;20537;-51
2023/07/05 10:14:10;;;;;;;4.73;3.43;;;26.00;49.30;;;;;;4987422;28;20453;-52
2023/07/05 10:16:49;;;;;;;3.47;3.17;;;26.00;49.10;;;;;;4985260;28;20473;-50
2023/07/05 10:19:29;;;;;;;5.60;3.83;;;26.10;49.40;;;;;;4988623;28;20485;-52
2023/07/05 10:22:06;;;;;;;4.27;3.97;;;26.00;47.60;;;;;;4989208;28;20576;-51
2023/07/05 10:24:57;;;;;;;4.20;3.80;;;26.00;48.00;;;;;;4985420;28;20449;-50
2023/07/05 10:27:46;;;;;;;5.40;3.33;;;26.00;47.10;;;;;;4984993;28;20989;-54
2023/07/05 10:30:15;;;;;;;4.23;3.40;;;26.00;47.00;;;;;;4983845;28;20535;-53
2023/07/05 10:32:42;;;;;;;4.13;3.20;;;26.10;47.00;;;;;;4986854;28;20945;-49
2023/07/05 10:35:25;;;;;;;4.00;3.60;;;26.10;46.20;;;;;;4986027;28;20567;-51
2023/07/05 10:37:52;;;;;;;3.63;3.33;;;26.20;46.60;;;;;;4984955;28;20458;-50
2023/07/05 10:40:19;;;;;;;4.47;4.07;;;26.30;45.90;;;;;;4989802;28;20584;-52
2023/07/05 10:43:14;;;;;;;3.73;3.43;;;26.50;45.40;;;;;;4988836;28;20854;-50
2023/07/05 10:45:40;;;;;;;4.20;3.80;;;26.80;44.80;;;;;;4984365;28;20469;-52
2023/07/05 10:48:22;;;;;;;4.43;4.03;;;27.10;43.00;;;;;;4986586;28;20445;-54
2023/07/05 10:50:48;;;;;;;5.30;4.23;;;27.20;43.30;;;;;;4988166;28;20195;-53
2023/07/05 10:53:17;;;;;;;4.43;4.03;;;27.30;41.90;;;;;;4986656;28;20536;-50
2023/07/05 10:55:50;;;;;;;5.07;3.87;;;27.20;40.90;;;;;;4986390;28;20453;-52
2023/07/05 10:58:19;;;;;;;4.07;3.67;;;27.20;40.30;;;;;;4990638;28;20500;-50
2023/07/05 11:01:04;;;;;;;4.30;3.73;;;27.40;40.50;;;;;;4992622;28;20481;-50
2023/07/05 11:03:42;;;;;;;4.07;3.30;;;27.40;40.00;;;;;;4990785;28;20437;-51
2023/07/05 11:06:09;;;;;;;4.53;4.13;;;27.40;38.70;;;;;;4988764;28;20511;-54
2023/07/05 11:08:38;;;;;;;3.83;3.30;;;27.60;39.20;;;;;;4993896;28;20438;-50
2023/07/05 11:11:18;;;;;;;4.20;3.80;;;27.80;38.10;;;;;;4993353;28;20437;-50
2023/07/05 11:13:46;;;;;;;3.90;3.53;;;28.10;38.00;;;;;;4991557;28;20951;-52
2023/07/05 11:16:18;;;;;;;4.07;3.67;;;28.10;37.00;;;;;;4993009;28;21091;-50
2023/07/05 11:18:44;;;;;;;3.90;3.60;;;28.30;37.40;;;;;;4992631;28;20572;-54
2023/07/05 11:21:40;;;;;;;3.50;3.00;;;28.50;36.80;;;;;;4990818;28;20456;-50
2023/07/05 11:24:09;;;;;;;3.97;3.53;;;28.70;36.70;;;;;;4991465;28;20886;-53
2023/07/05 11:26:38;;;;;;;3.77;3.47;;;28.80;35.30;;;;;;4991901;28;20855;-51
2023/07/05 11:29:32;;;;;;;3.77;3.47;;;28.80;36.80;;;;;;4990311;28;20517;-51
2023/07/05 11:32:08;;;;;;;5.43;3.87;;;28.90;35.30;;;;;;4982586;28;20461;-50
2023/07/05 11:34:40;;;;;;;4.00;2.77;;;29.00;36.30;;;;;;4986109;28;20912;-50
2023/07/05 11:37:06;;;;;;;3.60;3.30;;;29.00;35.20;;;;;;4983008;28;21038;-52
2023/07/05 11:39:48;;;;;;;3.40;3.10;;;29.10;33.30;;;;;;4990059;28;20924;-50
2023/07/05 11:42:14;;;;;;;3.13;2.83;;;29.30;33.20;;;;;;4980206;28;21229;-55
2023/07/05 11:44:43;;;;;;;3.00;2.80;;;29.30;31.50;;;;;;4991876;28;20453;-50
2023/07/05 11:47:30;;;;;;;3.10;2.80;;;29.40;31.30;;;;;;4990508;28;20432;-55
2023/07/05 11:49:57;;;;;;;3.27;2.97;;;29.30;29.70;;;;;;4992595;28;21054;-51
2023/07/05 11:52:32;;;;;;;2.53;2.33;;;29.30;30.40;;;;;;4987540;28;20489;-55
2023/07/05 11:55:20;;;;;;;3.90;3.03;;;29.30;29.70;;;;;;4987644;28;20460;-54
2023/07/05 11:58:18;;;;;;;3.20;2.90;;;29.00;30.30;;;;;;4989383;28;20457;-54
2023/07/05 12:00:52;;;;;;;2.90;2.63;;;28.80;30.80;;;;;;4989227;28;20540;-53
2023/07/05 12:03:19;;;;;;;2.90;2.60;;;28.90;31.00;;;;;;4989455;28;21027;-55
2023/07/05 12:05:53;;;;;;;2.73;2.53;;;29.00;30.90;;;;;;4999748;28;20811;-51
2023/07/05 12:08:41;;;;;;;2.73;2.30;;;29.30;30.60;;;;;;4991620;28;20541;-54
2023/07/05 12:11:07;;;;;;;3.13;2.83;;;29.40;30.10;;;;;;4980876;28;20478;-51
2023/07/05 12:13:35;;;;;;;2.97;2.73;;;29.30;30.50;;;;;;4997712;28;20528;-53
2023/07/05 12:16:03;;;;;;;4.63;3.03;;;29.40;31.20;;;;;;4989943;28;20249;-52
2023/07/05 12:18:30;;;;;;;6.27;2.60;;;29.50;31.40;;;;;;4988734;28;20474;-53
2023/07/05 12:20:58;;;;;;;3.20;2.70;;;29.60;30.40;;;;;;4990340;28;20448;-54
2023/07/05 12:23:28;;;;;;;3.33;2.50;;;29.70;30.50;;;;;;4986357;28;20464;-53
2023/07/05 12:25:58;;;;;;;2.80;2.60;;;29.80;31.20;;;;;;4986565;28;20817;-52
2023/07/05 12:28:26;;;;;;;2.63;2.27;;;29.90;30.50;;;;;;4989545;28;20437;-53
2023/07/05 12:31:01;;;;;;;3.27;2.33;;;30.00;31.10;;;;;;4986897;28;21048;-55
2023/07/05 12:33:31;;;;;;;3.63;2.60;;;30.20;30.40;;;;;;4987333;28;20439;-56
2023/07/05 12:36:15;;;;;;;3.53;2.50;;;30.20;30.40;;;;;;4986861;28;20453;-55
2023/07/05 12:38:47;;;;;;;5.93;2.50;;;30.30;30.10;;;;;;4986783;28;20495;-51
2023/07/05 12:41:22;;;;;;;3.70;3.10;;;30.40;30.00;;;;;;4983952;28;20446;-53
2023/07/05 12:43:57;;;;;;;3.90;2.70;;;30.30;29.90;;;;;;4986609;28;20445;-53
2023/07/05 12:46:25;;;;;;;4.20;2.73;;;30.10;29.60;;;;;;4988071;28;20945;-54
2023/07/05 12:48:51;;;;;;;2.73;2.53;;;30.20;29.10;;;;;;4984773;28;20804;-55
2023/07/05 12:51:28;;;;;;;6.43;3.60;;;30.30;29.20;;;;;;4990468;28;20454;-54
2023/07/05 12:54:00;;;;;;;4.47;2.83;;;30.20;28.70;;;;;;4989706;28;20523;-55
2023/07/05 12:56:32;;;;;;;2.73;2.50;;;30.20;28.90;;;;;;4991689;28;20441;-55
2023/07/05 12:59:06;;;;;;;3.17;2.60;;;30.00;28.60;;;;;;4986316;28;20601;-56
2023/07/05 13:01:35;;;;;;;2.33;2.13;;;29.90;28.80;;;;;;4985934;28;20464;-54
2023/07/05 13:04:08;;;;;;;3.17;2.63;;;29.90;28.40;;;;;;4989699;28;20448;-51